< < Back
Terminal Aerodrome Forecast


Current Version              Previous Versions:   1  2  3  4  5  6  7  8  9  

Terminal Aerodrome Forecast

338
FTUS42 KJAX 242000 AAB
TAFSSI
TAF AMD
KSSI 242001Z 2420/2518 23007KT P6SM BKN035
     FM250000 21006KT P6SM -SHRA OVC025
     FM250300 21004KT 5SM -RADZ BR OVC015
     FM250600 24004KT 2SM -RADZ BR OVC005
     FM251200 32004KT 2SM -RADZ BR OVC005=

Latest METAR

784
SAUS70 KWBC 242200 RRR
MTRSSI
METAR KSSI 242153Z AUTO 00000KT 10SM OVC037 21/18 A2991 RMK AO2 SLP127
T02110183


USA.gov is the U.S. government's official web portal to all federal, state and local government web resources and services.